Main page
METAR-TAF:

METAR-TAF

Airports :

Piešťany Airport

Piešťany, Slovakia

latitude: 48-37-30N, longitude: 017-49-43E, elevation: 163 m

Current weather observation

The report was made 21 minutes ago, at 10:00 UTC
Wind 8 kt from the North
Temperature 3°C
Humidity 56%
Pressure 1016 hPa
Visibility 10 km or more
Broken clouds at a height of 4500 ft
Overcast at a height of 7000 ft

METAR: LZPP 191000Z 36008KT 9999 BKN045 OVC070 03/M05 Q1016

Time: 11:21 (10:21 UTC)

Forecast

The report was made 2 hours and 21 minutes ago, at 08:00 UTC
Forecast valid from 19 at 09 UTC to 19 at 18 UTC
Wind 6 kt from the North
Visibility 10 km or more
Broken clouds at a height of 4500 ft
Overcast at a height of 7000 ft
Becoming
from 19 at 16 UTC to 19 at 18 UTC
Few clouds at a height of 700 ft
Overcast at a height of 1400 ft

TAF: LZPP 190800Z 1909/1918 01006KT 9999 BKN045 OVC070 BECMG 1916/1918 FEW007 OVC014

Weather observations and forecasts of more than 4000 airports (METAR and TAF reports).

The available stations are represented by yellow and red dots on the map.

Hover mouse over dot to see the name of the station.

Then click to see weather observations and forecasts.

To change the map : click on the green buttons with a black cross to zoom in, on the green button with a dash to zoom out, or on the green arrows for adjacent maps.


METAR-TAF: